Time;durP1;ratioP1;P1;durP2;ratioP2;P2;SDS_P1;SDS_P2;PMS_P1;PMS_P2;Temp;Humidity;BMP_temperature;BMP_pressure;BME280_temperature;BME280_humidity;BME280_pressure;Samples;Min_cycle;Max_cycle;Signal;HPM_P1;HPM_P2
2021/08/07 00:01:55;;;;;;;14.55;6.25;;;18.50;99.90;;;18.74;75.75;100237.03;5075766;28;20461;-67
2021/08/07 00:04:23;;;;;;;11.75;5.50;;;18.40;99.90;;;18.71;75.69;100239.88;5075583;28;20044;-67
2021/08/07 00:06:52;;;;;;;12.13;4.75;;;18.40;99.90;;;18.72;75.72;100240.72;5058107;28;20382;-67
2021/08/07 00:09:20;;;;;;;13.90;5.47;;;18.30;99.90;;;18.54;75.68;100214.81;5075787;28;20052;-67
2021/08/07 00:11:49;;;;;;;13.73;4.50;;;18.30;99.90;;;18.56;75.84;100232.53;5057597;28;20056;-67
2021/08/07 00:14:18;;;;;;;18.70;5.15;;;18.20;99.90;;;18.65;75.72;100242.84;5075355;28;20119;-67
2021/08/07 00:16:47;;;;;;;11.20;4.50;;;18.30;99.90;;;18.56;75.74;100243.25;5075383;28;20079;-67
2021/08/07 00:19:15;;;;;;;14.73;5.13;;;18.20;99.90;;;18.51;75.86;100226.53;5057641;28;20064;-67
2021/08/07 00:21:44;;;;;;;13.68;5.00;;;18.20;99.90;;;18.48;75.59;100217.78;5075181;28;20047;-67
2021/08/07 00:24:13;;;;;;;15.48;4.60;;;18.20;99.90;;;18.46;75.64;100252.69;5075170;28;20033;-67
2021/08/07 00:26:41;;;;;;;15.32;5.63;;;18.20;99.90;;;18.55;75.72;100236.19;5075052;28;20044;-67
2021/08/07 00:29:10;;;;;;;17.58;5.38;;;18.20;99.90;;;18.57;75.56;100234.28;5057329;28;20074;-67
2021/08/07 00:31:40;;;;;;;15.82;5.30;;;18.20;99.90;;;18.46;75.19;100217.00;5074909;28;20048;-67
2021/08/07 00:34:09;;;;;;;17.58;5.40;;;18.20;99.90;;;18.56;75.09;100242.41;5057392;28;20045;-67
2021/08/07 00:36:39;;;;;;;12.43;5.05;;;18.20;99.90;;;18.55;75.22;100249.56;5053706;28;20103;-67
2021/08/07 00:39:08;;;;;;;16.40;5.13;;;18.20;99.90;;;18.50;75.00;100232.84;5053737;28;20045;-67
2021/08/07 00:41:39;;;;;;;16.10;5.18;;;18.20;99.90;;;18.50;75.03;100248.03;5053879;28;20049;-67
2021/08/07 00:44:08;;;;;;;14.30;5.40;;;18.20;99.90;;;18.39;75.20;100231.59;5055538;28;20106;-65
2021/08/07 00:46:42;;;;;;;14.70;5.20;;;18.10;99.90;;;18.47;75.15;100232.97;5054052;28;20056;-65
2021/08/07 00:49:14;;;;;;;16.67;6.13;;;18.10;99.90;;;18.46;75.01;100236.63;5070261;28;20391;-65
2021/08/07 00:51:46;;;;;;;22.35;6.55;;;18.10;99.90;;;18.42;75.08;100226.97;5053988;28;20453;-66
2021/08/07 00:54:20;;;;;;;15.00;5.68;;;18.10;99.90;;;18.44;74.98;100222.44;5053680;28;20052;-66
2021/08/07 00:56:52;;;;;;;16.20;6.13;;;18.10;99.90;;;18.31;75.00;100231.91;5053669;28;20398;-66
2021/08/07 00:59:21;;;;;;;18.20;5.85;;;18.00;99.90;;;18.23;75.15;100212.69;5053461;28;20049;-66
2021/08/07 01:01:56;;;;;;;16.33;5.95;;;18.00;99.90;;;18.33;75.37;100229.19;5054454;28;20398;-66
2021/08/07 01:04:40;;;;;;;13.30;5.25;;;18.00;99.90;;;18.16;75.26;100194.25;5053419;28;20069;-65
2021/08/07 01:07:22;;;;;;;18.30;6.53;;;17.90;99.90;;;18.36;75.24;100219.19;5053589;28;20052;-65
2021/08/07 01:10:03;;;;;;;15.93;7.00;;;18.00;99.90;;;18.32;75.33;100216.72;5052630;28;20052;-65
2021/08/07 01:12:47;;;;;;;16.00;6.18;;;18.00;99.90;;;18.36;75.57;100216.53;5052946;28;20051;-66
2021/08/07 01:15:21;;;;;;;18.65;5.97;;;18.00;99.90;;;18.25;75.86;100205.44;5053161;28;20045;-65
2021/08/07 01:17:55;;;;;;;20.15;6.07;;;17.90;99.90;;;18.23;75.84;100222.50;5052775;28;20477;-65
2021/08/07 01:20:35;;;;;;;16.00;6.20;;;18.00;99.90;;;18.29;76.03;100217.72;5052728;28;20079;-65
2021/08/07 01:23:10;;;;;;;16.75;5.75;;;17.90;99.90;;;18.31;76.04;100215.84;5053075;28;20083;-65
2021/08/07 01:25:52;;;;;;;23.20;6.35;;;17.90;99.90;;;18.20;76.42;100198.53;5052821;28;20056;-65
2021/08/07 01:28:32;;;;;;;19.85;5.60;;;17.90;99.90;;;18.13;76.92;100218.50;5052823;28;20099;-65
2021/08/07 01:31:05;;;;;;;18.08;5.82;;;17.80;99.90;;;18.19;77.11;100205.72;5069392;28;20048;-65
2021/08/07 01:33:36;;;;;;;17.67;5.93;;;17.80;99.90;;;18.08;77.18;100178.56;5053157;28;20457;-65
2021/08/07 01:36:12;;;;;;;17.42;5.63;;;17.80;99.90;;;18.02;77.12;100162.81;5069017;28;20119;-65
2021/08/07 01:38:44;;;;;;;13.70;5.60;;;17.90;99.90;;;18.21;77.25;100201.19;5052448;28;20099;-65
2021/08/07 01:41:18;;;;;;;19.10;6.05;;;17.90;99.90;;;18.24;77.21;100192.09;5052791;28;20045;-66
2021/08/07 01:43:53;;;;;;;17.83;5.13;;;17.90;99.90;;;17.97;77.06;100160.34;5068997;28;20126;-65
2021/08/07 01:46:29;;;;;;;16.10;6.88;;;17.90;99.90;;;17.92;77.38;100150.78;5053776;28;20033;-65
2021/08/07 01:49:08;;;;;;;16.65;6.38;;;17.80;99.90;;;18.26;77.21;100199.13;5052476;28;20072;-78
2021/08/07 01:51:53;;;;;;;16.42;6.40;;;17.90;99.90;;;18.16;77.06;100181.75;5053143;28;20056;-77
2021/08/07 01:54:32;;;;;;;16.55;5.78;;;17.90;99.90;;;18.22;77.10;100188.63;5069574;28;20052;-77
2021/08/07 01:57:10;;;;;;;16.33;6.05;;;17.90;99.90;;;18.24;77.26;100182.28;5052889;28;20049;-78
2021/08/07 01:59:41;;;;;;;15.65;6.15;;;17.90;99.90;;;18.28;77.11;100189.22;5052719;28;20049;-77
2021/08/07 02:02:13;;;;;;;12.88;5.50;;;17.90;99.90;;;18.29;76.97;100185.59;5052884;28;20057;-77
2021/08/07 02:04:49;;;;;;;13.80;5.57;;;17.90;99.90;;;18.28;76.81;100189.22;5052722;28;20139;-77
2021/08/07 02:07:23;;;;;;;17.73;5.28;;;17.90;99.90;;;18.24;76.65;100181.41;5052979;28;20045;-77
2021/08/07 02:10:00;;;;;;;16.75;5.90;;;17.90;99.90;;;18.16;76.97;100184.44;5053732;28;20394;-77
2021/08/07 02:12:32;;;;;;;16.67;5.18;;;17.80;99.90;;;18.15;77.33;100185.38;5054572;28;20125;-78
2021/08/07 02:15:11;;;;;;;16.40;4.60;;;17.80;99.90;;;18.08;77.43;100169.69;5052979;28;20136;-78
2021/08/07 02:17:43;;;;;;;13.38;4.85;;;17.70;99.90;;;17.53;77.36;100072.34;5070322;28;20075;-78
2021/08/07 02:20:16;;;;;;;15.35;5.00;;;17.80;99.90;;;17.47;77.38;100062.75;5053851;28;20490;-78
2021/08/07 02:22:48;;;;;;;16.98;5.68;;;17.80;99.90;;;18.10;77.42;100174.00;5054940;28;20049;-78
2021/08/07 02:25:19;;;;;;;16.02;5.53;;;17.80;99.90;;;18.08;77.49;100191.94;5053445;28;20041;-78
2021/08/07 02:28:06;;;;;;;12.88;5.43;;;17.70;99.90;;;18.08;77.27;100183.91;5054447;28;20445;-78
2021/08/07 02:30:41;;;;;;;15.45;5.43;;;17.70;99.90;;;18.02;77.50;100184.22;5069793;28;20106;-77
2021/08/07 02:33:13;;;;;;;11.07;4.97;;;17.70;99.90;;;17.65;77.65;100106.56;5052855;28;20498;-77
2021/08/07 02:35:43;;;;;;;12.98;5.03;;;17.70;99.90;;;17.48;77.60;100080.56;5050524;28;20144;-78
2021/08/07 02:38:13;;;;;;;13.32;5.15;;;17.70;99.90;;;18.14;77.56;100188.16;5052352;28;20049;-77
2021/08/07 02:40:41;;;;;;;13.30;5.53;;;17.70;99.90;;;18.13;77.58;100189.06;5069196;28;20041;-77
2021/08/07 02:43:16;;;;;;;18.65;5.55;;;17.70;99.90;;;18.15;77.36;100177.34;5052441;28;20087;-77
2021/08/07 02:45:46;;;;;;;12.25;5.30;;;17.80;99.90;;;18.19;77.16;100187.00;5052403;28;20045;-77
2021/08/07 02:48:26;;;;;;;15.45;5.72;;;17.80;99.90;;;18.06;77.41;100158.19;5052317;28;20445;-77
2021/08/07 02:50:57;;;;;;;14.50;5.65;;;17.80;99.90;;;18.07;77.44;100166.13;5052115;28;20049;-77
2021/08/07 02:53:27;;;;;;;17.15;5.88;;;17.80;99.90;;;17.99;77.94;100155.78;5053071;28;20107;-77
2021/08/07 02:55:57;;;;;;;17.10;6.28;;;17.80;99.90;;;18.09;77.77;100166.06;5056562;28;20083;-77
2021/08/07 02:58:29;;;;;;;14.88;5.05;;;17.70;99.90;;;18.01;77.89;100163.72;5056361;28;20099;-77
2021/08/07 03:00:59;;;;;;;15.70;6.03;;;17.70;99.90;;;18.04;77.83;100160.91;5056442;28;20115;-77
2021/08/07 03:03:33;;;;;;;13.55;5.50;;;17.70;99.90;;;17.98;77.91;100159.38;5055692;28;20144;-76
2021/08/07 03:06:03;;;;;;;13.30;5.72;;;17.70;99.90;;;17.77;77.93;100143.44;5055832;28;20049;-78
2021/08/07 03:08:34;;;;;;;17.23;5.57;;;17.70;99.90;;;17.91;77.98;100176.66;5072887;28;20132;-78
2021/08/07 03:11:03;;;;;;;17.35;5.60;;;17.60;99.90;;;17.89;78.08;100164.28;5055981;28;20063;-78
2021/08/07 03:13:31;;;;;;;17.83;6.00;;;17.60;99.90;;;17.97;77.76;100175.53;5055971;28;20057;-78
2021/08/07 03:16:02;;;;;;;16.83;5.85;;;17.60;99.90;;;17.81;77.65;100156.63;5055721;28;20449;-77
2021/08/07 03:18:38;;;;;;;17.85;5.55;;;17.60;99.90;;;17.80;77.72;100170.06;5055747;28;20083;-77
2021/08/07 03:21:06;;;;;;;13.30;5.40;;;17.50;99.90;;;17.81;77.80;100161.97;5055174;28;20052;-77
2021/08/07 03:23:44;;;;;;;15.00;6.07;;;17.50;99.90;;;17.82;77.75;100162.84;5055751;28;20123;-78
2021/08/07 03:26:13;;;;;;;17.40;5.07;;;17.50;99.90;;;17.89;77.64;100175.00;5057159;28;20052;-77
2021/08/07 03:28:42;;;;;;;19.83;6.10;;;17.50;99.90;;;17.94;77.34;100163.13;5055746;28;20445;-77
2021/08/07 03:31:15;;;;;;;12.75;4.88;;;17.60;99.90;;;17.95;77.38;100175.59;5055576;28;20048;-77
2021/08/07 03:33:44;;;;;;;12.88;4.97;;;17.60;99.90;;;18.00;77.04;100167.38;5055460;28;20105;-77
2021/08/07 03:36:14;;;;;;;;;;;17.70;99.90;;;17.95;76.91;100170.25;5067706;28;20056;-78
2021/08/07 03:38:46;;;;;;;17.65;5.38;;;17.70;99.90;;;17.85;77.06;100170.72;5075518;28;19920;-77
2021/08/07 03:41:15;;;;;;;11.77;4.97;;;17.60;99.90;;;17.82;77.64;100165.50;5058684;28;20072;-77
2021/08/07 03:43:44;;;;;;;10.00;5.07;;;17.50;99.90;;;17.87;77.48;100156.34;5058578;28;20068;-77
2021/08/07 03:46:15;;;;;;;15.70;5.45;;;17.60;99.90;;;17.93;77.47;100168.56;5058615;28;20052;-77
2021/08/07 03:48:44;;;;;;;10.18;5.22;;;17.60;99.90;;;17.87;77.64;100176.88;5076554;28;20051;-78
2021/08/07 03:51:13;;;;;;;11.68;5.10;;;17.60;99.90;;;17.87;77.51;100151.00;5058256;28;20401;-77
2021/08/07 03:53:46;;;;;;;13.52;4.75;;;17.60;99.90;;;17.94;77.44;100157.78;5058665;28;20048;-77
2021/08/07 03:56:22;;;;;;;13.23;4.78;;;17.60;99.90;;;17.99;77.32;100157.59;5075226;28;20079;-77
2021/08/07 03:58:51;;;;;;;12.25;4.88;;;17.60;99.90;;;17.77;77.44;100151.47;5075069;28;20071;-77
2021/08/07 04:01:26;;;;;;;15.68;5.30;;;17.60;99.90;;;17.93;77.45;100157.84;5075249;28;20044;-77
2021/08/07 04:03:57;;;;;;;16.52;5.20;;;17.60;99.90;;;17.94;77.43;100151.59;5058385;28;20055;-77
2021/08/07 04:06:40;;;;;;;13.82;5.55;;;17.60;99.90;;;17.98;77.29;100148.69;5057758;28;20379;-77
2021/08/07 04:09:14;;;;;;;14.88;5.50;;;17.60;99.90;;;18.03;77.10;100146.69;5058422;28;20086;-77
2021/08/07 04:11:45;;;;;;;11.85;4.97;;;17.70;99.90;;;17.90;76.92;100120.56;5074825;28;20048;-77
2021/08/07 04:14:14;;;;;;;12.55;5.63;;;17.70;99.90;;;18.11;76.82;100164.19;5074829;28;20052;-77
2021/08/07 04:16:44;;;;;;;13.93;5.55;;;17.70;99.90;;;18.08;76.72;100148.28;5074276;28;20072;-77
2021/08/07 04:19:18;;;;;;;15.30;5.47;;;17.80;99.90;;;18.07;76.87;100147.41;5058032;28;20072;-77
2021/08/07 04:21:53;;;;;;;14.00;5.18;;;17.70;99.90;;;18.09;76.83;100150.88;5058410;28;20082;-78
2021/08/07 04:24:23;;;;;;;16.42;5.35;;;17.70;99.90;;;18.06;76.65;100139.44;5074692;28;20053;-77
2021/08/07 04:26:52;;;;;;;12.75;5.38;;;17.80;99.90;;;18.14;76.72;100153.34;5057546;28;20135;-77
2021/08/07 04:29:22;;;;;;;20.67;5.60;;;17.80;99.90;;;17.86;76.68;100106.47;5057957;28;20036;-77
2021/08/07 04:31:57;;;;;;;14.43;5.00;;;17.80;99.90;;;18.14;76.72;100145.31;5057838;28;20059;-77
2021/08/07 04:34:26;;;;;;;16.52;5.38;;;17.80;99.90;;;18.04;76.77;100142.16;5057704;28;20044;-77
2021/08/07 04:36:55;;;;;;;12.18;4.88;;;17.70;99.90;;;18.14;76.75;100158.69;5057399;28;20055;-78
2021/08/07 04:39:26;;;;;;;13.32;4.70;;;17.80;99.90;;;18.03;77.56;100154.72;5057333;28;20045;-79
2021/08/07 04:41:59;;;;;;;20.45;5.88;;;17.70;99.90;;;18.06;77.93;100151.00;5074078;28;20044;-77
2021/08/07 04:44:28;;;;;;;13.32;4.88;;;17.70;99.90;;;18.06;78.45;100145.63;5057361;28;20044;-78
2021/08/07 04:46:58;;;;;;;12.88;5.10;;;17.70;99.90;;;18.11;78.99;100156.16;5075142;28;20052;-78
2021/08/07 04:49:26;;;;;;;16.73;5.78;;;17.70;99.90;;;18.01;79.86;100148.56;5057347;28;20110;-78
2021/08/07 04:51:57;;;;;;;12.98;5.65;;;17.70;99.90;;;18.05;80.27;100138.56;5057076;28;20045;-79
2021/08/07 04:54:26;;;;;;;17.13;5.78;;;17.70;99.90;;;18.16;80.47;100146.97;5057102;28;20113;-77
2021/08/07 04:56:55;;;;;;;15.10;6.18;;;17.80;99.90;;;18.08;80.69;100146.44;5073687;28;20080;-79
2021/08/07 04:59:24;;;;;;;15.75;5.65;;;17.80;99.90;;;18.13;80.83;100143.56;5075209;28;20047;-78
2021/08/07 05:01:53;;;;;;;15.82;6.05;;;17.80;99.90;;;18.14;80.97;100148.84;5057001;28;20048;-78
2021/08/07 05:04:23;;;;;;;13.55;5.50;;;17.80;99.90;;;18.22;80.80;100151.16;5074848;28;20040;-79
2021/08/07 05:06:52;;;;;;;14.15;6.20;;;17.80;99.90;;;18.22;80.77;100152.03;5074987;28;20041;-78
2021/08/07 05:09:21;;;;;;;18.83;5.82;;;17.90;99.90;;;18.24;80.85;100138.56;5056398;28;20050;-77
2021/08/07 05:12:08;;;;;;;13.60;6.10;;;17.90;99.90;;;18.28;80.67;100143.72;5056537;28;20405;-78
2021/08/07 05:14:41;;;;;;;14.82;5.43;;;18.00;99.90;;;18.37;80.70;100139.75;5056734;28;20052;-77
2021/08/07 05:17:10;;;;;;;13.18;5.38;;;18.00;99.90;;;18.42;80.57;100140.38;5055731;28;20049;-77
2021/08/07 05:19:41;;;;;;;17.30;5.45;;;18.10;99.90;;;18.49;80.15;100145.38;5056403;28;20076;-78
2021/08/07 05:22:11;;;;;;;12.23;5.85;;;18.10;99.90;;;18.04;79.88;100052.03;5056684;28;20523;-78
2021/08/07 05:24:44;;;;;;;12.85;5.50;;;18.20;99.90;;;18.57;80.13;100132.50;5056277;28;20132;-78
2021/08/07 05:27:13;;;;;;;20.48;6.05;;;18.20;99.90;;;18.65;79.91;100137.47;5073341;28;20052;-78
2021/08/07 05:29:42;;;;;;;13.20;5.07;;;18.30;99.90;;;18.68;79.88;100118.56;5056815;28;20040;-78
2021/08/07 05:32:10;;;;;;;13.48;5.63;;;18.40;99.90;;;18.71;79.97;100143.41;5056840;28;20041;-78
2021/08/07 05:34:40;;;;;;;14.52;5.60;;;18.40;99.90;;;18.70;80.02;100135.44;5056566;28;20056;-77
2021/08/07 05:37:10;;;;;;;;;;;18.40;99.90;;;18.71;79.81;100127.34;5073434;28;20052;-77
2021/08/07 05:39:38;;;;;;;12.82;5.07;;;18.50;99.90;;;18.62;79.54;100118.91;5073419;28;20369;-78
2021/08/07 05:42:07;;;;;;;13.43;4.68;;;18.40;99.90;;;18.73;79.70;100141.53;5056875;28;20047;-77
2021/08/07 05:44:35;;;;;;;15.73;5.25;;;18.40;99.90;;;18.80;79.85;100137.59;5074253;28;20132;-77
2021/08/07 05:47:04;;;;;;;15.75;5.00;;;18.50;99.90;;;18.77;80.08;100137.75;5057058;28;20036;-77
2021/08/07 05:49:33;;;;;;;16.08;5.65;;;18.50;99.90;;;18.84;79.88;100135.63;5056587;28;20149;-77
2021/08/07 05:52:04;;;;;;;14.07;4.82;;;18.50;99.90;;;18.79;79.90;100110.88;5073923;28;20037;-78
2021/08/07 05:54:34;;;;;;;16.73;5.53;;;18.60;99.90;;;18.87;79.38;100146.22;5056302;28;20052;-77
2021/08/07 05:57:04;;;;;;;22.17;6.70;;;18.60;99.90;;;18.85;79.15;100132.00;5072995;28;20044;-77
2021/08/07 05:59:35;;;;;;;15.98;5.38;;;18.60;99.90;;;18.89;78.79;100141.66;5074091;28;20049;-78
2021/08/07 06:02:04;;;;;;;14.65;5.28;;;18.60;99.90;;;18.95;78.83;100130.59;5056049;28;20555;-78
2021/08/07 06:04:33;;;;;;;15.48;5.00;;;18.60;99.90;;;18.80;78.51;100126.88;5055878;28;20044;-78
2021/08/07 06:07:05;;;;;;;17.00;5.25;;;18.50;99.90;;;18.85;78.73;100126.66;5056234;28;20053;-78
2021/08/07 06:09:35;;;;;;;14.43;4.85;;;18.60;99.90;;;18.84;78.27;100114.19;5072474;28;20059;-78
2021/08/07 06:12:05;;;;;;;12.82;4.60;;;18.60;99.90;;;18.86;77.95;100115.84;5055745;28;20043;-78
2021/08/07 06:14:35;;;;;;;12.80;5.10;;;18.60;99.90;;;18.79;77.83;100092.97;5072563;28;20078;-78
2021/08/07 06:17:04;;;;;;;12.77;5.45;;;18.60;99.90;;;18.92;77.61;100118.22;5073733;28;20094;-78
2021/08/07 06:19:35;;;;;;;15.30;5.22;;;18.60;99.90;;;18.69;77.55;100102.44;5055662;28;20135;-78
2021/08/07 06:22:05;;;;;;;13.25;4.63;;;18.60;99.90;;;18.79;77.70;100108.19;5055400;28;20135;-78
2021/08/07 06:24:35;;;;;;;14.88;4.93;;;18.50;99.90;;;18.90;77.95;100120.13;5055746;28;20053;-78
2021/08/07 06:27:06;;;;;;;11.60;5.20;;;18.50;99.90;;;18.81;78.36;100125.06;5055626;28;20080;-78
2021/08/07 06:29:35;;;;;;;14.20;5.07;;;18.50;99.90;;;18.71;78.65;100113.06;5055466;28;20387;-78
2021/08/07 06:32:04;;;;;;;14.98;4.95;;;18.50;99.90;;;18.70;79.06;100120.22;5073510;28;20032;-78
2021/08/07 06:34:33;;;;;;;15.35;5.20;;;18.40;99.90;;;18.59;79.11;100103.81;5055679;28;20060;-78
2021/08/07 06:37:02;;;;;;;12.27;5.05;;;18.40;99.90;;;18.60;79.45;100118.94;5072178;28;20598;-78
2021/08/07 06:39:33;;;;;;;12.77;5.55;;;18.40;99.90;;;18.76;79.73;100119.94;5055344;28;20052;-78
2021/08/07 06:42:02;;;;;;;13.77;5.30;;;18.50;99.90;;;18.84;79.24;100111.50;5055344;28;20059;-78
2021/08/07 06:44:55;;;;;;;15.43;5.90;;;18.50;99.90;;;18.99;80.17;100123.28;5072043;28;20076;-79
2021/08/07 06:47:24;;;;;;;12.75;6.05;;;18.70;99.90;;;18.91;79.22;100111.13;5055523;28;20044;-77
2021/08/07 06:49:53;;;;;;;12.50;5.18;;;18.70;99.90;;;18.88;78.69;100135.41;5055707;28;20137;-77
2021/08/07 06:52:22;;;;;;;13.85;5.18;;;18.60;99.90;;;18.85;78.30;100113.25;5073450;28;20131;-79
2021/08/07 06:54:52;;;;;;;7.95;5.03;;;18.70;99.90;;;18.70;78.28;100108.63;5055555;28;20048;-85
2021/08/07 06:57:22;;;;;;;13.23;5.43;;;18.50;99.90;;;18.85;78.34;100100.69;5055446;28;20063;-84
2021/08/07 06:59:52;;;;;;;13.18;4.75;;;18.60;99.90;;;19.00;77.64;100123.19;5072143;28;20056;-81
2021/08/07 07:02:22;;;;;;;11.95;4.85;;;18.80;99.90;;;19.14;76.92;100125.19;5071954;28;20070;-79
2021/08/07 07:04:51;;;;;;;7.88;5.13;;;18.80;99.90;;;19.15;76.79;100117.03;5055606;28;20517;-78
2021/08/07 07:07:21;;;;;;;12.18;5.20;;;18.80;99.90;;;18.96;76.11;100112.69;5055307;28;20486;-77
2021/08/07 07:09:51;;;;;;;10.40;4.85;;;18.80;99.90;;;18.85;77.06;100105.22;5073338;28;20043;-78
2021/08/07 07:12:20;;;;;;;16.88;5.50;;;18.70;99.90;;;19.05;77.20;100114.94;5073143;28;20056;-80
2021/08/07 07:14:48;;;;;;;15.57;5.15;;;18.70;99.90;;;18.89;77.33;100094.25;5055389;28;20075;-79
2021/08/07 07:17:18;;;;;;;12.57;4.60;;;18.70;99.90;;;18.98;77.63;100125.09;5055000;28;20449;-81
2021/08/07 07:19:46;;;;;;;8.57;4.68;;;18.70;99.90;;;19.07;78.08;100129.97;5055264;28;20537;-80
2021/08/07 07:22:15;;;;;;;12.13;5.40;;;18.80;99.90;;;18.93;77.95;100128.00;5072937;28;20044;-77
2021/08/07 07:24:43;;;;;;;9.10;4.78;;;18.80;99.90;;;18.96;77.99;100118.06;5071656;28;20557;-85
2021/08/07 07:27:13;;;;;;;10.18;5.20;;;18.70;99.90;;;18.98;77.76;100142.97;5055110;28;20094;-82
2021/08/07 07:29:42;;;;;;;10.52;4.93;;;18.70;99.90;;;18.86;78.22;100126.56;5073073;28;20123;-83
2021/08/07 07:32:11;;;;;;;11.30;4.82;;;18.60;99.90;;;18.94;79.02;100123.50;5054871;28;20052;-79
2021/08/07 07:34:39;;;;;;;15.80;5.28;;;18.60;99.90;;;18.81;78.99;100128.59;5073329;28;20044;-81
2021/08/07 07:37:08;;;;;;;9.35;4.85;;;18.60;99.90;;;18.80;80.45;100124.19;5054756;28;20064;-81
2021/08/07 07:39:40;;;;;;;11.35;5.10;;;18.50;99.90;;;18.32;81.00;100085.53;5073335;28;20059;-84
2021/08/07 07:42:10;;;;;;;10.85;5.03;;;18.50;99.90;;;18.52;81.77;100117.59;5058091;28;20143;-78
2021/08/07 07:44:40;;;;;;;11.65;5.20;;;18.30;99.90;;;18.57;81.21;100131.63;5058293;28;20079;-83
2021/08/07 07:47:08;;;;;;;12.23;4.57;;;18.40;99.90;;;18.43;81.21;100118.03;5076437;28;20072;-81
2021/08/07 07:49:38;;;;;;;8.18;4.65;;;18.20;99.90;;;18.47;81.44;100109.78;5058942;28;20048;-85
2021/08/07 07:52:09;;;;;;;8.40;4.53;;;18.30;99.90;;;18.50;81.57;100109.66;5058830;28;20059;-82
2021/08/07 07:54:41;;;;;;;14.88;4.90;;;18.30;99.90;;;18.46;82.26;100113.41;5058600;28;20421;-81
2021/08/07 07:57:09;;;;;;;10.43;5.05;;;18.30;99.90;;;18.44;81.85;100115.31;5076402;28;20060;-85
2021/08/07 07:59:42;;;;;;;10.27;4.78;;;18.30;99.90;;;18.39;81.82;100121.78;5057993;28;20041;-72
2021/08/07 08:02:10;;;;;;;12.32;4.50;;;18.20;99.90;;;18.44;81.18;100107.25;5058073;28;20048;-77
2021/08/07 08:04:40;;;;;;;9.10;4.85;;;18.30;99.90;;;18.69;81.36;100115.84;5058188;28;20045;-74
2021/08/07 08:07:08;;;;;;;13.95;5.45;;;18.40;99.90;;;18.69;80.58;100125.69;5075828;28;20044;-74
2021/08/07 08:09:37;;;;;;;11.60;5.97;;;18.40;99.90;;;18.60;81.55;100128.81;5058108;28;20098;-75
2021/08/07 08:12:06;;;;;;;12.13;6.28;;;18.40;99.90;;;18.45;81.47;100138.44;5074876;28;20116;-74
2021/08/07 08:14:35;;;;;;;9.93;5.72;;;18.40;99.90;;;18.45;81.42;100130.41;5075874;28;20082;-75
2021/08/07 08:17:05;;;;;;;9.05;5.38;;;18.30;99.90;;;18.53;81.25;100132.72;5057976;28;20044;-74
2021/08/07 08:19:36;;;;;;;9.25;5.68;;;18.40;99.90;;;18.71;81.69;100107.72;5074867;28;20045;-74
2021/08/07 08:22:05;;;;;;;14.07;6.20;;;18.40;99.90;;;18.66;81.20;100096.38;5057872;28;20045;-74
2021/08/07 08:24:34;;;;;;;9.70;6.00;;;18.50;99.90;;;18.86;80.36;100098.91;5057721;28;20052;-75
2021/08/07 08:27:04;;;;;;;13.50;5.72;;;18.70;99.90;;;19.01;79.97;100126.75;5075711;28;20041;-74
2021/08/07 08:29:32;;;;;;;12.02;5.90;;;18.80;99.90;;;18.97;79.88;100091.16;5075541;28;20445;-74
2021/08/07 08:32:01;;;;;;;10.80;5.60;;;18.80;99.90;;;18.75;79.69;100012.84;5057451;28;20040;-74
2021/08/07 08:34:31;;;;;;;11.30;6.65;;;19.00;99.90;;;19.42;79.24;100121.00;5074322;28;20056;-74
2021/08/07 08:36:59;;;;;;;11.07;5.95;;;19.20;99.90;;;19.53;78.60;100093.63;5057237;28;20044;-74
2021/08/07 08:39:28;;;;;;;11.27;5.85;;;19.30;99.90;;;19.58;77.63;100083.50;5075244;28;20475;-74
2021/08/07 08:41:57;;;;;;;13.68;5.78;;;19.50;99.90;;;19.60;77.09;100078.94;5074178;28;20047;-74
2021/08/07 08:44:26;;;;;;;10.82;5.03;;;19.60;99.90;;;19.94;76.12;100104.81;5057451;28;20076;-75
2021/08/07 08:46:55;;;;;;;9.98;5.30;;;19.70;99.90;;;20.04;76.11;100106.00;5057438;28;20055;-75
2021/08/07 08:49:25;;;;;;;10.43;5.07;;;19.70;99.90;;;20.14;75.32;100096.50;5074905;28;20036;-74
2021/08/07 08:51:55;;;;;;;10.60;5.50;;;19.90;99.90;;;20.18;74.22;100107.03;5056967;28;20051;-75
2021/08/07 08:54:24;;;;;;;11.10;5.25;;;19.90;99.90;;;20.29;72.79;100093.84;5057105;28;20045;-74
2021/08/07 08:56:53;;;;;;;9.60;4.55;;;20.00;99.90;;;20.28;72.83;100086.75;5073921;28;20129;-74
2021/08/07 08:59:22;;;;;;;9.70;5.00;;;20.00;99.90;;;20.37;72.60;100088.03;5059850;28;20041;-74
2021/08/07 09:01:53;;;;;;;10.98;4.63;;;20.10;99.90;;;20.31;71.74;100083.00;5063363;28;20398;-74
2021/08/07 09:04:25;;;;;;;10.00;5.00;;;20.10;99.90;;;20.39;71.42;100094.19;5058730;28;20040;-75
2021/08/07 09:06:55;;;;;;;5.95;4.50;;;20.10;99.90;;;20.45;70.41;100069.66;5057221;28;20094;-75
2021/08/07 09:09:36;;;;;;;6.22;4.88;;;20.20;99.90;;;20.39;70.11;100081.66;5056697;28;20118;-74
2021/08/07 09:12:08;;;;;;;10.63;4.75;;;20.20;99.90;;;20.41;70.71;100065.44;5056437;28;20044;-75
2021/08/07 09:14:39;;;;;;;6.40;4.82;;;20.10;99.90;;;20.39;69.91;100062.84;5056622;28;20500;-75
2021/08/07 09:17:17;;;;;;;9.55;5.03;;;20.10;99.90;;;20.46;71.25;100064.19;5056438;28;20110;-74
2021/08/07 09:19:59;;;;;;;7.05;4.22;;;20.10;99.90;;;20.40;70.96;100051.13;5056543;28;20052;-75
2021/08/07 09:22:32;;;;;;;8.13;4.63;;;20.20;99.90;;;20.53;70.17;100062.03;5074555;28;20063;-75
2021/08/07 09:25:13;;;;;;;6.07;4.40;;;20.20;99.90;;;20.56;70.33;100043.03;5073110;28;20045;-75
2021/08/07 09:27:46;;;;;;;6.18;3.95;;;20.30;99.90;;;20.69;70.22;100054.81;5073198;28;20052;-74
2021/08/07 09:30:32;;;;;;;8.98;4.90;;;20.40;99.90;;;20.56;68.90;100025.09;5056036;28;20045;-74
2021/08/07 09:33:09;;;;;;;8.60;4.05;;;20.40;99.90;;;20.69;69.04;100044.91;5056038;28;20062;-74
2021/08/07 09:35:43;;;;;;;8.43;4.72;;;20.40;99.90;;;20.78;69.97;100048.03;5056009;28;20052;-74
2021/08/07 09:38:19;;;;;;;9.43;4.03;;;20.50;99.90;;;20.35;69.25;100052.34;5055963;28;20401;-75
2021/08/07 09:40:57;;;;;;;5.60;4.50;;;20.30;99.90;;;20.48;71.79;100032.75;5056094;28;20456;-77
2021/08/07 09:43:31;;;;;;;7.88;4.43;;;20.20;99.90;;;20.23;69.19;100010.94;5072723;28;20494;-74
2021/08/07 09:46:04;;;;;;;6.75;4.13;;;20.30;99.90;;;20.52;69.89;99996.69;5073713;28;20051;-69
2021/08/07 09:48:37;;;;;;;8.30;4.43;;;20.40;99.90;;;20.65;71.43;100019.16;5072690;28;20049;-75
2021/08/07 09:51:24;;;;;;;6.18;3.70;;;20.50;99.90;;;20.74;69.13;100041.09;5055939;28;20041;-78
2021/08/07 09:54:11;;;;;;;7.88;4.68;;;20.50;99.90;;;20.86;68.71;100024.25;5055841;28;20508;-75
2021/08/07 09:56:49;;;;;;;6.88;4.25;;;20.60;99.90;;;21.17;68.04;100027.72;5055899;28;20049;-76
2021/08/07 09:59:19;;;;;;;8.55;4.72;;;20.90;99.90;;;21.32;66.56;100045.59;5073905;28;20062;-73
2021/08/07 10:01:51;;;;;;;10.98;5.50;;;21.10;99.90;;;21.20;67.00;100032.03;5055732;28;20052;-66
2021/08/07 10:04:22;;;;;;;9.48;4.43;;;21.00;99.90;;;21.42;67.87;100027.94;5055155;28;20391;-68
2021/08/07 10:07:08;;;;;;;6.60;4.72;;;21.10;99.90;;;21.53;67.29;100014.66;5055737;28;20135;-67
2021/08/07 10:09:43;;;;;;;6.15;4.15;;;21.30;99.90;;;21.72;65.79;100030.50;5055327;28;20409;-70
2021/08/07 10:12:16;;;;;;;4.97;4.43;;;21.40;99.90;;;21.55;64.82;100041.47;5055565;28;20059;-70
2021/08/07 10:14:53;;;;;;;6.05;4.25;;;21.40;99.90;;;21.56;64.13;100033.28;5055571;28;20051;-73
2021/08/07 10:17:24;;;;;;;6.35;4.38;;;21.30;99.90;;;21.67;65.41;100021.88;5055341;28;20132;-65
2021/08/07 10:19:53;;;;;;;5.75;4.05;;;21.40;99.90;;;21.73;64.53;100017.91;5055375;28;20055;-74
2021/08/07 10:22:25;;;;;;;7.43;4.28;;;21.40;99.90;;;21.59;64.54;100034.94;5055528;28;20090;-71
2021/08/07 10:25:04;;;;;;;8.23;4.32;;;21.30;99.90;;;21.44;63.27;100011.69;5073120;28;20041;-70
2021/08/07 10:27:35;;;;;;;9.25;4.40;;;21.20;99.90;;;21.00;64.04;99957.06;5055398;28;20075;-70